KOWD/OWD METAR and TAF weather

Enter ICAO airport designator
Station Type Date Time Source
KOWD METAR 2019/12/13 16:53 UTC NOAA

KOWD 131653Z 00000KT 10SM OVC055 04/M01 A3043 RMK AO2 SLP305 T00441011


Station Type Date Time Source
KOWD Decoded METAR 2019/12/13 16:53 UTC NOAA

NORWOOD MEMORIAL AIRPORT, MA, United States (KOWD) 42-11N 71-10W 19M
Dec 13, 2019 - 11:53 AM EST / 2019.12.13 1653 UTC
Wind: Calm:0
Visibility: 10 mile(s):0
Sky conditions: overcast
Temperature: 39.9 F (4.4 C)
Dew Point: 30.0 F (-1.1 C)
Relative Humidity: 67%
Pressure (altimeter): 30.43 in. Hg (1030 hPa)
ob: KOWD 131653Z 00000KT 10SM OVC055 04/M01 A3043 RMK AO2 SLP305 T00441011
cycle: 17

Station Type Date Time Source
KOWD TAF UTC NOAA

Error!

Example: see airport list